createdAt,value
2023-04-06T00:00:58.980Z,4.50
2023-04-06T00:05:01.814Z,4.40
2023-04-06T00:09:04.845Z,4.20
2023-04-06T00:13:08.311Z,4.10
2023-04-06T00:17:11.099Z,3.80
2023-04-06T00:21:15.192Z,3.60
2023-04-06T00:25:17.791Z,3.50
2023-04-06T00:29:20.885Z,3.40
2023-04-06T00:33:23.770Z,3.20
2023-04-06T00:37:26.415Z,3.10
2023-04-06T00:41:29.123Z,3.00
2023-04-06T00:45:31.870Z,2.90
2023-04-06T00:49:34.931Z,2.80
2023-04-06T00:53:37.677Z,2.80
2023-04-06T00:57:40.822Z,2.80
2023-04-06T01:01:43.661Z,2.80
2023-04-06T01:06:01.003Z,2.70
2023-04-06T01:10:11.246Z,2.60
2023-04-06T01:14:15.272Z,2.60
2023-04-06T01:18:31.100Z,2.50
2023-04-06T01:22:47.480Z,2.40
2023-04-06T01:26:51.145Z,2.30
2023-04-06T01:30:54.832Z,2.10
2023-04-06T01:35:14.582Z,2.00
2023-04-06T01:39:26.388Z,2.00
2023-04-06T01:43:29.237Z,1.90
2023-04-06T01:47:43.958Z,1.80
2023-04-06T01:51:48.454Z,1.90
2023-04-06T01:55:52.540Z,1.80
2023-04-06T02:00:07.020Z,1.80
2023-04-06T02:04:24.639Z,1.80
2023-04-06T02:08:32.962Z,1.70
2023-04-06T02:12:35.988Z,1.70
2023-04-06T02:16:40.323Z,1.70
2023-04-06T02:20:43.349Z,1.60
2023-04-06T02:24:46.426Z,1.70
2023-04-06T02:28:49.050Z,1.60
2023-04-06T02:32:51.865Z,1.60
2023-04-06T02:36:54.669Z,1.60
2023-04-06T02:40:58.047Z,1.80
2023-04-06T02:45:03.126Z,1.90
2023-04-06T02:49:12.562Z,2.10
2023-04-06T02:53:16.172Z,2.10
2023-04-06T02:57:19.364Z,2.30
2023-04-06T03:01:22.675Z,2.50
2023-04-06T03:05:31.751Z,2.50
2023-04-06T03:09:34.686Z,2.50
2023-04-06T03:13:39.511Z,2.40
2023-04-06T03:21:53.618Z,2.20
2023-04-06T03:25:58.166Z,2.10
2023-04-06T03:30:01.282Z,2.10
2023-04-06T03:34:09.354Z,1.90
2023-04-06T03:38:12.829Z,1.80
2023-04-06T03:42:15.868Z,1.80
2023-04-06T03:46:26.256Z,1.70
2023-04-06T03:50:32.192Z,1.70
2023-04-06T03:54:35.482Z,1.70
2023-04-06T03:58:38.230Z,1.60
2023-04-06T04:02:41.463Z,1.60
2023-04-06T04:06:45.530Z,1.50
2023-04-06T04:10:49.303Z,1.50
2023-04-06T04:14:56.815Z,1.60
2023-04-06T04:18:59.948Z,1.60
2023-04-06T04:23:02.654Z,1.60
2023-04-06T04:27:08.785Z,1.60
2023-04-06T04:31:11.864Z,1.60
2023-04-06T04:35:17.484Z,1.70
2023-04-06T04:39:21.207Z,1.90
2023-04-06T04:43:33.503Z,2.10
2023-04-06T04:47:38.603Z,2.10
2023-04-06T04:51:43.426Z,2.00
2023-04-06T04:55:55.542Z,1.90
2023-04-06T04:59:59.330Z,1.80
2023-04-06T05:04:02.003Z,1.80
2023-04-06T05:08:05.740Z,1.70
2023-04-06T05:12:24.029Z,1.70
2023-04-06T05:16:37.521Z,1.70
2023-04-06T05:20:40.519Z,1.80
2023-04-06T05:24:43.298Z,1.80
2023-04-06T05:28:47.058Z,1.80
2023-04-06T05:32:51.405Z,1.80
2023-04-06T05:36:54.474Z,1.90
2023-04-06T05:41:03.243Z,2.00
2023-04-06T05:45:09.008Z,2.00
2023-04-06T05:49:12.260Z,2.00
2023-04-06T05:53:15.682Z,2.00
2023-04-06T05:57:25.633Z,2.10
2023-04-06T06:01:28.492Z,2.10
2023-04-06T06:05:31.301Z,2.20
2023-04-06T06:09:40.273Z,2.30
2023-04-06T06:13:55.635Z,2.30
2023-04-06T06:17:58.631Z,2.50
2023-04-06T06:22:04.049Z,2.80
2023-04-06T06:26:07.721Z,3.20
2023-04-06T06:30:11.042Z,3.60
2023-04-06T06:34:17.036Z,4.00
2023-04-06T06:38:21.486Z,4.20
2023-04-06T06:42:26.501Z,4.60
2023-04-06T06:46:45.430Z,4.80
2023-04-06T06:50:48.967Z,5.20
2023-04-06T06:54:51.735Z,5.60
2023-04-06T06:58:56.513Z,5.90
2023-04-06T07:02:59.590Z,6.20
2023-04-06T07:07:02.424Z,6.40
2023-04-06T07:11:05.043Z,6.50
2023-04-06T07:15:08.130Z,6.80
2023-04-06T07:19:11.372Z,7.10
2023-04-06T07:23:14.212Z,7.50
2023-04-06T07:27:17.430Z,7.70
2023-04-06T07:31:20.509Z,8.00
2023-04-06T07:35:27.739Z,8.30
2023-04-06T07:39:31.264Z,8.50
2023-04-06T07:43:34.139Z,8.60
2023-04-06T07:47:37.253Z,8.80
2023-04-06T07:51:40.864Z,9.00
2023-04-06T07:55:43.786Z,9.10
2023-04-06T07:59:46.364Z,9.30
2023-04-06T08:03:49.295Z,9.40
2023-04-06T08:07:52.018Z,9.50
2023-04-06T08:11:54.701Z,9.60
2023-04-06T08:20:01.026Z,10.00
2023-04-06T08:24:04.000Z,10.30
2023-04-06T08:28:06.642Z,10.60
2023-04-06T08:32:09.398Z,10.90
2023-04-06T08:36:15.575Z,11.30
2023-04-06T08:40:18.401Z,11.50
2023-04-06T08:44:20.938Z,11.70
2023-04-06T08:48:25.498Z,11.70
2023-04-06T08:52:29.059Z,11.70
2023-04-06T08:56:31.923Z,11.80
2023-04-06T09:00:35.023Z,12.10
2023-04-06T09:04:37.936Z,12.40
2023-04-06T09:08:41.715Z,12.60
2023-04-06T09:12:44.375Z,13.00
2023-04-06T09:16:46.978Z,13.20
2023-04-06T09:20:57.630Z,13.30
2023-04-06T09:25:00.304Z,13.40
2023-04-06T09:29:04.541Z,13.50
2023-04-06T09:33:08.117Z,13.50
2023-04-06T09:37:17.462Z,13.50
2023-04-06T09:41:26.923Z,13.90
2023-04-06T09:45:31.276Z,13.70
2023-04-06T09:49:34.472Z,13.80
2023-04-06T09:53:38.680Z,13.90
2023-04-06T09:57:59.169Z,14.10
2023-04-06T10:02:02.332Z,14.40
2023-04-06T10:06:06.557Z,14.50
2023-04-06T10:10:09.499Z,14.80
2023-04-06T10:14:13.061Z,14.90
2023-04-06T10:18:16.136Z,14.80
2023-04-06T10:22:22.179Z,14.80
2023-04-06T10:26:25.115Z,14.70
2023-04-06T10:30:27.656Z,14.50
2023-04-06T10:34:35.589Z,14.70
2023-04-06T10:38:41.391Z,14.80
2023-04-06T10:42:44.742Z,15.00
2023-04-06T10:46:54.191Z,14.90
2023-04-06T10:50:57.608Z,15.00
2023-04-06T10:55:00.500Z,15.40
2023-04-06T10:59:03.196Z,15.20
2023-04-06T11:03:05.789Z,15.00
2023-04-06T11:07:08.436Z,14.80
2023-04-06T11:11:17.015Z,15.20
2023-04-06T11:15:19.706Z,15.60
2023-04-06T11:19:22.466Z,16.00
2023-04-06T11:23:28.674Z,16.10
2023-04-06T11:27:33.092Z,16.10
2023-04-06T11:32:02.142Z,16.00
2023-04-06T11:36:04.928Z,16.00
2023-04-06T11:40:09.109Z,16.00
2023-04-06T11:44:11.885Z,16.00
2023-04-06T11:48:24.614Z,15.90
2023-04-06T11:52:29.389Z,15.90
2023-04-06T11:56:31.983Z,16.10
2023-04-06T12:00:35.846Z,16.00
2023-04-06T12:04:38.710Z,16.10
2023-04-06T12:08:41.914Z,16.20
2023-04-06T12:12:44.543Z,16.00
2023-04-06T12:16:47.257Z,15.90
2023-04-06T12:20:49.891Z,16.00
2023-04-06T12:24:52.707Z,16.20
2023-04-06T12:28:55.601Z,16.30
2023-04-06T12:32:58.209Z,16.20
2023-04-06T12:37:01.200Z,16.30
2023-04-06T12:41:04.263Z,16.80
2023-04-06T12:45:07.155Z,17.00
2023-04-06T12:49:09.815Z,17.10
2023-04-06T12:53:12.543Z,17.00
2023-04-06T12:57:16.194Z,16.70
2023-04-06T13:01:20.066Z,16.50
2023-04-06T13:05:22.760Z,16.50
2023-04-06T13:09:25.587Z,16.50
2023-04-06T13:13:29.557Z,16.50
2023-04-06T13:17:32.297Z,16.50
2023-04-06T13:21:34.963Z,16.60
2023-04-06T13:25:38.592Z,16.60
2023-04-06T13:29:41.603Z,16.70
2023-04-06T13:37:47.496Z,16.80
2023-04-06T13:41:50.142Z,16.70
2023-04-06T13:45:53.509Z,16.80
2023-04-06T13:49:57.072Z,16.60
2023-04-06T13:53:59.707Z,16.40
2023-04-06T13:58:02.374Z,16.20
2023-04-06T14:02:05.880Z,16.80
2023-04-06T14:10:18.313Z,17.30
2023-04-06T14:14:21.826Z,17.40
2023-04-06T14:18:24.579Z,17.50
2023-04-06T14:26:30.254Z,17.70
2023-04-06T14:30:33.452Z,17.60
2023-04-06T14:38:39.471Z,17.50
2023-04-06T14:42:42.337Z,17.30
2023-04-06T14:46:45.273Z,17.20
2023-04-06T14:50:54.534Z,17.30
2023-04-06T14:54:57.325Z,17.40
2023-04-06T14:59:00.462Z,17.50
2023-04-06T15:03:03.332Z,17.60
2023-04-06T15:07:06.440Z,17.60
2023-04-06T15:11:09.208Z,17.60
2023-04-06T15:15:12.117Z,17.50
2023-04-06T15:19:14.624Z,17.60
2023-04-06T15:23:17.311Z,17.50
2023-04-06T15:27:20.038Z,17.50
2023-04-06T15:31:35.836Z,17.60
2023-04-06T15:35:43.679Z,17.50
2023-04-06T15:39:46.568Z,17.60
2023-04-06T15:43:49.815Z,17.60
2023-04-06T15:47:52.442Z,17.40
2023-04-06T15:51:54.996Z,17.10
2023-04-06T15:56:04.992Z,17.00
2023-04-06T16:00:08.948Z,17.00
2023-04-06T16:04:12.966Z,16.90
2023-04-06T16:08:16.841Z,16.70
2023-04-06T16:12:19.753Z,16.50
2023-04-06T16:16:23.275Z,16.50
2023-04-06T16:20:26.030Z,16.90
2023-04-06T16:24:28.895Z,17.00
2023-04-06T16:28:31.511Z,17.30
2023-04-06T16:32:34.377Z,17.70
2023-04-06T16:36:37.653Z,17.70
2023-04-06T16:40:40.541Z,17.70
2023-04-06T16:44:43.297Z,17.70
2023-04-06T16:48:46.267Z,17.70
2023-04-06T16:52:49.208Z,17.50
2023-04-06T16:56:51.838Z,17.50
2023-04-06T17:00:54.396Z,18.20
2023-04-06T17:04:56.879Z,18.80
2023-04-06T17:09:00.197Z,19.30
2023-04-06T17:13:02.720Z,19.50
2023-04-06T17:17:05.811Z,18.90
2023-04-06T17:21:10.340Z,18.10
2023-04-06T17:25:13.389Z,17.50
2023-04-06T17:29:16.278Z,17.00
2023-04-06T17:33:18.853Z,16.50
2023-04-06T17:37:21.723Z,16.00
2023-04-06T17:41:24.236Z,15.50
2023-04-06T17:45:26.742Z,15.10
2023-04-06T17:49:29.820Z,14.60
2023-04-06T17:53:34.517Z,14.30
2023-04-06T17:57:40.023Z,14.10
2023-04-06T18:01:44.810Z,13.90
2023-04-06T18:05:47.816Z,13.60
2023-04-06T18:09:50.510Z,13.40
2023-04-06T18:13:53.402Z,13.20
2023-04-06T18:17:56.338Z,13.00
2023-04-06T18:21:59.069Z,12.80
2023-04-06T18:26:01.762Z,12.60
2023-04-06T18:30:04.954Z,12.50
2023-04-06T18:34:07.548Z,12.30
2023-04-06T18:38:10.509Z,12.10
2023-04-06T18:42:13.109Z,12.00
2023-04-06T18:46:17.271Z,11.60
2023-04-06T18:50:19.787Z,11.50
2023-04-06T18:54:22.397Z,11.30
2023-04-06T18:58:25.827Z,11.10
2023-04-06T19:02:28.703Z,11.20
2023-04-06T19:06:31.601Z,11.20
2023-04-06T19:10:35.085Z,11.30
2023-04-06T19:14:37.681Z,11.40
2023-04-06T19:18:43.502Z,11.40
2023-04-06T19:22:46.627Z,11.40
2023-04-06T19:26:49.353Z,11.30
2023-04-06T19:30:52.274Z,11.30
2023-04-06T19:34:54.974Z,11.20
2023-04-06T19:38:57.638Z,11.20
2023-04-06T19:43:00.638Z,11.00
2023-04-06T19:47:03.421Z,11.00
2023-04-06T19:51:06.038Z,10.90
2023-04-06T19:55:08.908Z,10.90
2023-04-06T19:59:11.848Z,10.80
2023-04-06T20:03:14.943Z,10.80
2023-04-06T20:07:17.967Z,10.70
2023-04-06T20:11:21.401Z,10.60
2023-04-06T20:15:24.640Z,10.60
2023-04-06T20:19:27.302Z,10.50
2023-04-06T20:23:29.802Z,10.40
2023-04-06T20:27:32.581Z,10.40
2023-04-06T20:31:35.476Z,10.30
2023-04-06T20:35:38.156Z,10.20
2023-04-06T20:39:40.876Z,10.20
2023-04-06T20:43:43.871Z,10.20
2023-04-06T20:47:46.560Z,10.10
2023-04-06T20:51:49.527Z,10.10
2023-04-06T20:55:52.598Z,10.00
2023-04-06T20:59:55.172Z,10.00
2023-04-06T21:03:57.870Z,10.00
2023-04-06T21:08:00.728Z,10.00
2023-04-06T21:12:04.111Z,9.90
2023-04-06T21:16:07.180Z,9.90
2023-04-06T21:20:10.174Z,9.80
2023-04-06T21:24:13.096Z,9.80
2023-04-06T21:28:15.949Z,9.70
2023-04-06T21:32:18.534Z,9.60
2023-04-06T21:36:21.105Z,9.70
2023-04-06T21:40:24.322Z,9.60
2023-04-06T21:44:27.020Z,9.60
2023-04-06T21:48:29.634Z,9.60
2023-04-06T21:52:32.208Z,9.60
2023-04-06T21:56:34.928Z,9.50
2023-04-06T22:00:37.612Z,9.50
2023-04-06T22:04:40.675Z,9.50
2023-04-06T22:08:44.440Z,9.40
2023-04-06T22:12:49.042Z,9.30
2023-04-06T22:16:51.667Z,9.10
2023-04-06T22:20:54.598Z,8.80
2023-04-06T22:24:58.747Z,8.50
2023-04-06T22:29:01.308Z,8.20
2023-04-06T22:33:04.066Z,8.00
2023-04-06T22:37:06.917Z,7.80
2023-04-06T22:41:09.382Z,7.50
2023-04-06T22:45:11.932Z,7.30
2023-04-06T22:49:14.665Z,7.10
2023-04-06T22:53:17.249Z,7.00
2023-04-06T22:57:20.011Z,6.80
2023-04-06T23:01:22.881Z,6.70
2023-04-06T23:05:25.703Z,6.60
2023-04-06T23:09:28.189Z,6.50
2023-04-06T23:13:31.076Z,6.50
2023-04-06T23:17:33.775Z,6.30
2023-04-06T23:21:36.556Z,6.30
2023-04-06T23:25:39.295Z,6.30
2023-04-06T23:29:41.858Z,6.30
2023-04-06T23:33:44.482Z,6.30
2023-04-06T23:37:47.041Z,6.40
2023-04-06T23:41:49.564Z,6.40
2023-04-06T23:45:52.186Z,6.30
2023-04-06T23:49:54.708Z,6.10
2023-04-06T23:53:57.992Z,6.00
2023-04-06T23:58:01.881Z,5.90
